Time;durP1;ratioP1;P1;durP2;ratioP2;P2;SDS_P1;SDS_P2;PMS_P1;PMS_P2;Temp;Humidity;BMP_temperature;BMP_pressure;BME280_temperature;BME280_humidity;BME280_pressure;Samples;Min_cycle;Max_cycle;Signal;HPM_P1;HPM_P2
2023/05/26 00:00:26;;;;;;;21.20;4.45;;;9.00;99.90;;;;;;4981752;28;20402;-80
2023/05/26 00:02:52;;;;;;;17.42;4.30;;;9.10;99.90;;;;;;5017487;28;20029;-80
2023/05/26 00:05:20;;;;;;;18.40;4.32;;;9.00;99.90;;;;;;5002993;28;20095;-81
2023/05/26 00:07:46;;;;;;;25.27;5.60;;;8.90;99.90;;;;;;5014035;28;20402;-80
2023/05/26 00:10:13;;;;;;;19.55;4.68;;;8.90;99.90;;;;;;5017072;28;20044;-80
2023/05/26 00:12:38;;;;;;;19.30;4.18;;;8.90;99.90;;;;;;5000749;28;21423;-80
2023/05/26 00:15:05;;;;;;;16.92;4.20;;;8.80;99.90;;;;;;5030925;28;20882;-80
2023/05/26 00:17:31;;;;;;;20.75;3.90;;;8.80;99.90;;;;;;4999328;28;20085;-80
2023/05/26 00:19:59;;;;;;;22.45;4.18;;;8.80;99.90;;;;;;5032939;28;20029;-80
2023/05/26 00:22:26;;;;;;;17.25;3.85;;;8.80;99.90;;;;;;5010803;28;20492;-79
2023/05/26 00:24:52;;;;;;;16.02;3.92;;;8.80;99.90;;;;;;5013234;28;20447;-80
2023/05/26 00:27:18;;;;;;;17.70;4.43;;;8.80;99.90;;;;;;4980086;28;20080;-80
2023/05/26 00:29:44;;;;;;;22.77;4.32;;;8.80;99.90;;;;;;5014265;28;20040;-80
2023/05/26 00:32:10;;;;;;;18.48;3.88;;;8.70;99.90;;;;;;4999190;28;20060;-80
2023/05/26 00:34:36;;;;;;;16.38;4.25;;;8.70;99.90;;;;;;4999974;28;20048;-80
2023/05/26 00:37:02;;;;;;;14.70;3.60;;;8.70;99.90;;;;;;5002384;28;20037;-80
2023/05/26 00:39:29;;;;;;;21.95;3.88;;;8.70;99.90;;;;;;5001703;28;20385;-81
2023/05/26 00:41:56;;;;;;;16.98;4.35;;;8.70;99.90;;;;;;5012212;28;20091;-80
2023/05/26 00:44:22;;;;;;;17.92;3.88;;;8.70;99.90;;;;;;5010503;28;20063;-80
2023/05/26 00:46:48;;;;;;;21.42;4.05;;;8.70;99.90;;;;;;5001129;28;20083;-81
2023/05/26 00:49:14;;;;;;;14.75;3.42;;;8.60;99.90;;;;;;5018018;28;20087;-81
2023/05/26 00:51:42;;;;;;;15.48;3.95;;;8.60;99.90;;;;;;4995082;28;20045;-81
2023/05/26 00:54:09;;;;;;;15.32;3.67;;;8.60;99.90;;;;;;5014385;28;20068;-81
2023/05/26 00:56:35;;;;;;;17.27;3.83;;;8.70;99.90;;;;;;4983178;28;20406;-80
2023/05/26 00:59:03;;;;;;;14.23;3.67;;;8.60;99.90;;;;;;5029935;28;20037;-80
2023/05/26 01:01:32;;;;;;;20.73;3.65;;;8.60;99.90;;;;;;5026462;28;20037;-81
2023/05/26 01:03:58;;;;;;;14.98;3.63;;;8.90;99.90;;;;;;5016646;28;20048;-79
2023/05/26 01:06:25;;;;;;;15.48;4.63;;;8.60;99.90;;;;;;5014373;28;20041;-79
2023/05/26 01:08:51;;;;;;;17.52;3.53;;;8.60;99.90;;;;;;5014870;28;20142;-80
2023/05/26 01:11:58;;;;;;;16.63;3.67;;;8.50;99.90;;;;;;5033557;28;20041;-80
2023/05/26 01:14:45;;;;;;;18.67;3.78;;;8.50;99.90;;;;;;4960466;28;20570;-80
2023/05/26 01:17:22;;;;;;;17.33;4.07;;;8.50;99.90;;;;;;4971773;28;20042;-79
2023/05/26 01:20:17;;;;;;;15.60;3.70;;;8.50;99.90;;;;;;4986958;28;20041;-79
2023/05/26 01:22:47;;;;;;;20.75;3.95;;;8.40;99.90;;;;;;5014673;28;20119;-81
2023/05/26 01:25:25;;;;;;;18.05;3.80;;;8.40;99.90;;;;;;5026806;28;20048;-81
2023/05/26 01:28:12;;;;;;;18.02;4.45;;;8.40;99.90;;;;;;5029058;28;20044;-80
2023/05/26 01:30:39;;;;;;;22.48;3.60;;;8.40;99.90;;;;;;5017219;28;20048;-80
2023/05/26 01:33:05;;;;;;;18.85;4.10;;;8.30;99.90;;;;;;5012136;28;20120;-79
2023/05/26 01:35:31;;;;;;;19.48;4.53;;;8.40;99.90;;;;;;5010868;28;20123;-79
2023/05/26 01:37:58;;;;;;;14.20;3.65;;;8.20;99.90;;;;;;4990847;28;20047;-80
2023/05/26 01:40:24;;;;;;;16.02;4.50;;;8.20;99.90;;;;;;5019713;28;20038;-80
2023/05/26 01:42:58;;;;;;;18.52;4.65;;;8.20;99.90;;;;;;5022000;28;20041;-80
2023/05/26 01:45:25;;;;;;;12.20;3.63;;;8.10;99.90;;;;;;5017929;28;20393;-80
2023/05/26 01:47:56;;;;;;;21.48;4.85;;;8.10;99.90;;;;;;5034362;28;20076;-81
2023/05/26 01:50:26;;;;;;;15.02;4.05;;;8.10;99.90;;;;;;5010661;28;20049;-80
2023/05/26 01:52:57;;;;;;;16.58;3.97;;;8.00;99.90;;;;;;5014849;28;20040;-80
2023/05/26 01:55:26;;;;;;;14.55;4.40;;;8.00;99.90;;;;;;5016117;28;20048;-80
2023/05/26 01:57:53;;;;;;;20.45;4.25;;;8.00;99.90;;;;;;5000155;28;20580;-81
2023/05/26 02:00:26;;;;;;;18.55;3.85;;;7.90;99.90;;;;;;5013592;28;20935;-80
2023/05/26 02:02:52;;;;;;;15.00;3.92;;;7.90;99.90;;;;;;4977357;28;20048;-81
2023/05/26 02:05:18;;;;;;;18.65;4.15;;;7.90;99.90;;;;;;5016547;28;20033;-80
2023/05/26 02:07:45;;;;;;;16.33;3.53;;;7.90;99.90;;;;;;5017414;28;20127;-81
2023/05/26 02:10:11;;;;;;;20.05;3.83;;;7.90;99.90;;;;;;5014940;28;20079;-80
2023/05/26 02:12:37;;;;;;;19.15;3.22;;;7.80;99.90;;;;;;5000951;28;21126;-80
2023/05/26 02:15:03;;;;;;;16.08;3.75;;;7.90;99.90;;;;;;5032280;28;20083;-81
2023/05/26 02:17:28;;;;;;;23.42;4.07;;;7.80;99.90;;;;;;4997119;28;20044;-80
2023/05/26 02:19:54;;;;;;;20.27;4.30;;;7.80;99.90;;;;;;5032918;28;20049;-81
2023/05/26 02:22:20;;;;;;;19.95;4.72;;;7.90;99.90;;;;;;4999655;28;20041;-81
2023/05/26 02:24:46;;;;;;;13.90;3.40;;;7.80;99.90;;;;;;5003728;28;20040;-80
2023/05/26 02:27:12;;;;;;;20.52;3.78;;;7.70;99.90;;;;;;4998279;28;20029;-80
2023/05/26 02:29:37;;;;;;;16.73;3.83;;;7.70;99.90;;;;;;5010340;28;20401;-80
2023/05/26 02:32:03;;;;;;;18.40;4.10;;;7.60;99.90;;;;;;4995817;28;20041;-80
2023/05/26 02:34:29;;;;;;;15.82;4.50;;;7.60;99.90;;;;;;5004162;28;20052;-80
2023/05/26 02:36:55;;;;;;;14.60;3.95;;;7.60;99.90;;;;;;4993644;28;20033;-80
2023/05/26 02:39:22;;;;;;;16.27;4.13;;;7.60;99.90;;;;;;4999635;28;20157;-80
2023/05/26 02:41:48;;;;;;;20.33;3.78;;;7.50;99.90;;;;;;5014690;28;20056;-82
2023/05/26 02:44:14;;;;;;;18.10;3.88;;;7.50;99.90;;;;;;5012294;28;20049;-80
2023/05/26 02:46:40;;;;;;;20.38;3.83;;;7.50;99.90;;;;;;5028003;28;20524;-80
2023/05/26 02:49:06;;;;;;;17.20;3.83;;;7.40;99.90;;;;;;4997596;28;20041;-80
2023/05/26 02:51:34;;;;;;;18.27;4.68;;;7.50;99.90;;;;;;5011602;28;20038;-80
2023/05/26 02:53:59;;;;;;;15.85;4.20;;;7.40;99.90;;;;;;4999515;28;20557;-80
2023/05/26 02:56:25;;;;;;;15.18;3.70;;;7.40;99.90;;;;;;5013493;28;20129;-80
2023/05/26 02:58:51;;;;;;;13.68;3.35;;;7.30;99.90;;;;;;4999595;28;20047;-80
2023/05/26 03:01:17;;;;;;;17.42;4.25;;;7.30;99.90;;;;;;4999978;28;20037;-80
2023/05/26 03:03:42;;;;;;;13.48;3.28;;;7.30;99.90;;;;;;5016531;28;20045;-80
2023/05/26 03:06:08;;;;;;;14.65;4.03;;;7.30;99.90;;;;;;5018836;28;20041;-80
2023/05/26 03:08:34;;;;;;;21.85;4.30;;;7.30;99.90;;;;;;5000688;28;20033;-80
2023/05/26 03:11:00;;;;;;;15.02;3.92;;;7.60;99.90;;;;;;5020744;28;20076;-80
2023/05/26 03:13:26;;;;;;;13.25;3.80;;;7.20;99.90;;;;;;4986815;28;20063;-80
2023/05/26 03:15:52;;;;;;;16.65;4.03;;;7.20;99.90;;;;;;5003531;28;20144;-80
2023/05/26 03:18:17;;;;;;;19.42;3.92;;;7.20;99.90;;;;;;5010027;28;20052;-81
2023/05/26 03:20:46;;;;;;;16.73;3.78;;;7.20;99.90;;;;;;5019996;28;20052;-81
2023/05/26 03:23:15;;;;;;;13.02;3.53;;;7.40;99.90;;;;;;5004180;28;20073;-81
2023/05/26 03:25:41;;;;;;;16.60;4.45;;;7.10;99.90;;;;;;5001756;28;20504;-80
2023/05/26 03:28:07;;;;;;;14.13;3.53;;;7.10;99.90;;;;;;5020025;28;20048;-81
2023/05/26 03:30:32;;;;;;;20.90;4.22;;;7.10;99.90;;;;;;4999412;28;20052;-80
2023/05/26 03:33:00;;;;;;;19.25;4.10;;;7.10;99.90;;;;;;5019354;28;20040;-80
2023/05/26 03:35:26;;;;;;;16.33;3.42;;;7.00;99.90;;;;;;5019429;28;20052;-80
2023/05/26 03:37:52;;;;;;;16.38;4.22;;;8.20;99.90;;;;;;5016689;28;20045;-80
2023/05/26 03:40:17;;;;;;;15.93;3.70;;;7.00;99.90;;;;;;4999159;28;20033;-81
2023/05/26 03:42:43;;;;;;;16.27;3.88;;;7.00;99.90;;;;;;5023950;28;20053;-81
2023/05/26 03:45:09;;;;;;;13.98;3.33;;;7.00;99.90;;;;;;5003005;28;20029;-81
2023/05/26 03:47:35;;;;;;;21.63;4.57;;;7.00;99.90;;;;;;5002901;28;20482;-80
2023/05/26 03:50:01;;;;;;;16.65;3.97;;;7.00;99.90;;;;;;5019074;28;20051;-81
2023/05/26 03:52:26;;;;;;;18.30;3.97;;;7.10;99.90;;;;;;4995309;28;20130;-80
2023/05/26 03:54:52;;;;;;;15.70;4.25;;;6.90;99.90;;;;;;5001457;28;20041;-80
2023/05/26 03:57:18;;;;;;;12.00;3.42;;;7.00;99.90;;;;;;5018423;28;20470;-80
2023/05/26 03:59:43;;;;;;;18.98;4.07;;;7.10;99.90;;;;;;5017412;28;20392;-80
2023/05/26 04:02:09;;;;;;;16.48;4.47;;;6.90;99.90;;;;;;5035167;28;20040;-81
2023/05/26 04:04:35;;;;;;;15.73;3.65;;;7.30;99.90;;;;;;4986457;28;20393;-80
2023/05/26 04:07:01;;;;;;;16.75;4.40;;;7.20;99.90;;;;;;5002814;28;20102;-81
2023/05/26 04:09:26;;;;;;;13.23;4.13;;;7.00;99.90;;;;;;5018588;28;20477;-80
2023/05/26 04:11:52;;;;;;;16.55;3.95;;;7.00;99.90;;;;;;5015939;28;20408;-80
2023/05/26 04:14:18;;;;;;;19.45;4.35;;;7.00;99.90;;;;;;4994873;28;20068;-81
2023/05/26 04:16:43;;;;;;;15.55;3.65;;;7.00;99.90;;;;;;5013047;28;20546;-81
2023/05/26 04:19:09;;;;;;;15.13;4.65;;;7.00;99.90;;;;;;4978116;28;20120;-80
2023/05/26 04:21:36;;;;;;;19.27;4.53;;;7.00;99.90;;;;;;4985501;28;20492;-80
2023/05/26 04:24:02;;;;;;;14.80;3.60;;;7.00;99.90;;;;;;4990087;28;20033;-81
2023/05/26 04:26:32;;;;;;;21.08;4.55;;;6.90;99.90;;;;;;5017782;28;20029;-79
2023/05/26 04:29:01;;;;;;;19.58;4.25;;;6.90;99.90;;;;;;4997568;28;20462;-79
2023/05/26 04:31:30;;;;;;;13.95;3.80;;;7.00;99.90;;;;;;5009273;28;20045;-79
2023/05/26 04:33:57;;;;;;;18.60;4.80;;;6.90;99.90;;;;;;5015823;28;20127;-79
2023/05/26 04:36:23;;;;;;;18.30;4.22;;;7.20;99.90;;;;;;5031817;28;20029;-80
2023/05/26 04:38:49;;;;;;;13.25;4.60;;;7.00;99.90;;;;;;5000436;28;20072;-79
2023/05/26 04:41:16;;;;;;;18.48;4.13;;;7.00;99.90;;;;;;4981869;28;20092;-81
2023/05/26 04:43:43;;;;;;;16.15;4.35;;;7.00;99.90;;;;;;4992969;28;20089;-79
2023/05/26 04:46:10;;;;;;;17.05;4.10;;;7.10;99.90;;;;;;5012119;28;20033;-79
2023/05/26 04:48:37;;;;;;;16.95;3.83;;;7.10;99.90;;;;;;5003844;28;20091;-80
2023/05/26 04:51:04;;;;;;;21.75;5.25;;;7.10;99.90;;;;;;5012787;28;20034;-81
2023/05/26 04:53:30;;;;;;;22.05;4.45;;;7.00;99.90;;;;;;5020833;28;20034;-80
2023/05/26 04:55:58;;;;;;;23.52;4.25;;;7.00;99.90;;;;;;5003012;28;20051;-80
2023/05/26 04:58:24;;;;;;;18.48;4.35;;;7.10;99.90;;;;;;4991679;28;20046;-79
2023/05/26 05:00:50;;;;;;;20.35;5.22;;;7.10;99.90;;;;;;4998199;28;20042;-80
2023/05/26 05:03:16;;;;;;;18.50;4.28;;;7.10;99.90;;;;;;5011782;28;20049;-80
2023/05/26 05:05:41;;;;;;;25.60;4.75;;;7.10;99.90;;;;;;4991110;28;20034;-80
2023/05/26 05:08:08;;;;;;;19.27;4.57;;;7.20;99.90;;;;;;5012598;28;20072;-81
2023/05/26 05:10:34;;;;;;;18.20;4.35;;;7.20;99.90;;;;;;4990413;28;20030;-80
2023/05/26 05:13:00;;;;;;;24.05;4.60;;;7.70;99.90;;;;;;5012962;28;20037;-80
2023/05/26 05:15:26;;;;;;;22.60;4.80;;;7.40;99.90;;;;;;5014178;28;20441;-80
2023/05/26 05:17:52;;;;;;;23.58;4.55;;;7.40;99.90;;;;;;5008734;28;20124;-79
2023/05/26 05:20:18;;;;;;;24.83;4.38;;;7.50;99.90;;;;;;4987482;28;20041;-80
2023/05/26 05:22:43;;;;;;;26.13;5.47;;;7.50;99.90;;;;;;4996792;28;20033;-80
2023/05/26 05:25:09;;;;;;;19.90;4.03;;;7.90;99.90;;;;;;5010287;28;20057;-80
2023/05/26 05:27:35;;;;;;;30.00;4.82;;;7.60;99.90;;;;;;5010073;28;20039;-80
2023/05/26 05:30:01;;;;;;;13.13;4.40;;;7.70;99.90;;;;;;5012821;28;20453;-80
2023/05/26 05:32:26;;;;;;;19.40;4.90;;;7.60;99.90;;;;;;4991518;28;20037;-81
2023/05/26 05:34:52;;;;;;;24.15;4.93;;;7.70;99.90;;;;;;4993351;28;20034;-81
2023/05/26 05:37:17;;;;;;;19.52;4.65;;;7.90;99.90;;;;;;4991106;28;20544;-80
2023/05/26 05:39:43;;;;;;;15.93;4.50;;;7.90;99.90;;;;;;5013461;28;20465;-81
2023/05/26 05:42:09;;;;;;;21.30;5.05;;;7.90;99.90;;;;;;5001851;28;20065;-81
2023/05/26 05:44:35;;;;;;;21.50;4.43;;;7.90;99.90;;;;;;5032506;28;20036;-81
2023/05/26 05:47:00;;;;;;;19.88;4.80;;;8.10;99.90;;;;;;5013715;28;20045;-82
2023/05/26 05:49:26;;;;;;;17.60;4.53;;;8.30;99.90;;;;;;5026332;28;20591;-81
2023/05/26 05:51:52;;;;;;;19.45;4.85;;;8.20;99.90;;;;;;5033607;28;20037;-80
2023/05/26 05:54:18;;;;;;;22.35;5.60;;;8.40;99.90;;;;;;5028696;28;20037;-81
2023/05/26 05:56:44;;;;;;;22.88;5.30;;;8.40;99.90;;;;;;5016160;28;20052;-81
2023/05/26 05:59:10;;;;;;;24.10;6.18;;;8.60;99.90;;;;;;5007662;28;20033;-81
2023/05/26 06:01:36;;;;;;;26.50;5.72;;;8.70;99.90;;;;;;4995751;28;20383;-81
2023/05/26 06:04:02;;;;;;;31.42;5.40;;;8.80;99.90;;;;;;5015869;28;20056;-81
2023/05/26 06:06:28;;;;;;;25.17;4.85;;;8.90;99.90;;;;;;5031463;28;20087;-80
2023/05/26 06:08:54;;;;;;;24.83;5.50;;;9.00;99.90;;;;;;5016424;28;20039;-81
2023/05/26 06:11:21;;;;;;;25.75;5.82;;;9.10;99.90;;;;;;4994147;28;20095;-81
2023/05/26 06:13:46;;;;;;;22.98;4.72;;;9.20;99.90;;;;;;5023808;28;20450;-81
2023/05/26 06:16:13;;;;;;;21.83;4.55;;;9.30;99.90;;;;;;4993581;28;20116;-81
2023/05/26 06:18:38;;;;;;;21.10;4.53;;;9.40;99.90;;;;;;4998877;28;20048;-80
2023/05/26 06:21:04;;;;;;;20.45;4.28;;;9.50;99.90;;;;;;5010425;28;20481;-80
2023/05/26 06:23:30;;;;;;;22.63;5.03;;;9.70;99.90;;;;;;4995837;28;20033;-81
2023/05/26 06:25:56;;;;;;;22.45;5.40;;;9.80;99.90;;;;;;5015972;28;20097;-82
2023/05/26 06:28:22;;;;;;;20.20;5.90;;;9.90;99.90;;;;;;4999007;28;20079;-82
2023/05/26 06:30:48;;;;;;;20.50;5.85;;;10.00;99.90;;;;;;4998234;28;20409;-80
2023/05/26 06:33:14;;;;;;;15.52;5.75;;;10.00;99.90;;;;;;5032042;28;20041;-80
2023/05/26 06:35:40;;;;;;;19.60;5.07;;;10.20;99.90;;;;;;5032552;28;20126;-81
2023/05/26 06:38:05;;;;;;;24.15;5.90;;;10.30;99.90;;;;;;5012943;28;20040;-81
2023/05/26 06:40:31;;;;;;;24.98;5.10;;;10.50;99.90;;;;;;4992335;28;20163;-79
2023/05/26 06:42:57;;;;;;;29.58;5.65;;;10.60;99.90;;;;;;5009797;28;20068;-79
2023/05/26 06:45:22;;;;;;;25.55;6.80;;;10.70;99.90;;;;;;5016250;28;20033;-80
2023/05/26 06:47:48;;;;;;;22.08;5.60;;;10.90;99.90;;;;;;5016111;28;20041;-80
2023/05/26 06:50:14;;;;;;;19.30;5.18;;;11.10;99.90;;;;;;5012918;28;20041;-80
2023/05/26 06:52:39;;;;;;;26.80;5.60;;;11.20;99.90;;;;;;5016638;28;20040;-81
2023/05/26 06:55:05;;;;;;;24.10;5.45;;;11.40;99.90;;;;;;5017510;28;20029;-80
2023/05/26 06:57:31;;;;;;;29.40;4.68;;;11.50;99.90;;;;;;5016816;28;20047;-80
2023/05/26 06:59:57;;;;;;;23.05;4.72;;;11.60;99.90;;;;;;5023642;28;20041;-79
2023/05/26 07:02:23;;;;;;;22.33;4.60;;;11.80;99.90;;;;;;5042105;28;20416;-80
2023/05/26 07:04:49;;;;;;;22.05;5.10;;;12.00;99.90;;;;;;4994897;28;20523;-80
2023/05/26 07:07:15;;;;;;;21.35;4.60;;;12.20;99.90;;;;;;5019813;28;20048;-80
2023/05/26 07:09:41;;;;;;;21.42;4.28;;;12.30;99.90;;;;;;5009908;28;21630;-79
2023/05/26 07:12:06;;;;;;;20.73;4.70;;;12.50;99.90;;;;;;5034174;28;20094;-80
2023/05/26 07:14:32;;;;;;;23.50;4.45;;;12.60;99.90;;;;;;5016272;28;20103;-80
2023/05/26 07:16:58;;;;;;;21.85;4.90;;;12.60;99.90;;;;;;5004416;28;20123;-80
2023/05/26 07:19:23;;;;;;;16.90;4.53;;;12.70;99.90;;;;;;4977390;28;20040;-80
2023/05/26 07:21:49;;;;;;;18.48;4.65;;;12.70;99.90;;;;;;5013218;28;20037;-80
2023/05/26 07:24:16;;;;;;;19.05;4.20;;;12.70;99.90;;;;;;5010618;28;20041;-79
2023/05/26 07:26:41;;;;;;;22.55;4.28;;;12.80;99.90;;;;;;5007575;28;20389;-80
2023/05/26 07:29:07;;;;;;;18.67;3.90;;;12.90;99.90;;;;;;5030401;28;20040;-80
2023/05/26 07:31:33;;;;;;;18.75;3.88;;;13.10;99.90;;;;;;5027153;28;20036;-78
2023/05/26 07:33:59;;;;;;;21.17;4.85;;;13.20;99.90;;;;;;5020627;28;20049;-79
2023/05/26 07:36:25;;;;;;;27.70;5.25;;;13.20;99.90;;;;;;5032592;28;20051;-80
2023/05/26 07:38:50;;;;;;;20.20;4.75;;;13.30;99.90;;;;;;5006639;28;20553;-80
2023/05/26 07:41:16;;;;;;;17.67;4.75;;;13.60;99.90;;;;;;5016135;28;20053;-79
2023/05/26 07:43:42;;;;;;;19.95;5.22;;;14.00;99.90;;;;;;4995748;28;20068;-79
2023/05/26 07:46:07;;;;;;;26.90;4.57;;;14.40;99.90;;;;;;4998192;28;20042;-79
2023/05/26 07:48:33;;;;;;;18.85;4.50;;;14.70;99.90;;;;;;5003605;28;20108;-79
2023/05/26 07:50:59;;;;;;;24.08;5.35;;;15.10;99.90;;;;;;4989747;28;20042;-79
2023/05/26 07:53:24;;;;;;;13.63;3.97;;;15.40;99.90;;;;;;4972698;28;20098;-80
2023/05/26 07:55:50;;;;;;;22.63;4.70;;;15.60;99.90;;;;;;5006987;28;20053;-80
2023/05/26 07:58:16;;;;;;;16.67;4.18;;;15.70;99.90;;;;;;5001486;28;20046;-80
2023/05/26 08:00:42;;;;;;;19.90;5.35;;;15.70;99.90;;;;;;4966141;28;20469;-80
2023/05/26 08:03:08;;;;;;;21.30;4.55;;;15.80;99.90;;;;;;5006525;28;20121;-79
2023/05/26 08:05:33;;;;;;;21.77;4.82;;;15.80;99.90;;;;;;5003728;28;20026;-79
2023/05/26 08:07:59;;;;;;;19.17;4.80;;;16.00;99.90;;;;;;5001427;28;20042;-81
2023/05/26 08:10:25;;;;;;;17.13;4.40;;;16.10;99.90;;;;;;5015744;28;20065;-80
2023/05/26 08:12:52;;;;;;;13.55;4.38;;;16.10;99.90;;;;;;4999233;28;20104;-81
2023/05/26 08:15:20;;;;;;;15.55;4.43;;;16.10;99.90;;;;;;5003555;28;20536;-80
2023/05/26 08:17:47;;;;;;;20.23;4.15;;;16.10;99.90;;;;;;4984199;28;20490;-81
2023/05/26 08:20:13;;;;;;;19.30;4.38;;;16.10;99.90;;;;;;4982037;28;20091;-81
2023/05/26 08:22:39;;;;;;;17.23;4.22;;;16.20;99.90;;;;;;4999876;28;20041;-80
2023/05/26 08:25:05;;;;;;;19.63;4.57;;;16.30;99.90;;;;;;5005827;28;20040;-80
2023/05/26 08:27:31;;;;;;;18.33;4.65;;;16.40;99.90;;;;;;4981719;28;20037;-80
2023/05/26 08:29:57;;;;;;;17.45;4.18;;;16.40;99.90;;;;;;5019512;28;20261;-80
2023/05/26 08:32:23;;;;;;;15.70;3.72;;;16.50;99.90;;;;;;5015988;28;20034;-81
2023/05/26 08:34:49;;;;;;;17.88;4.18;;;16.70;99.90;;;;;;4981001;28;20038;-80
2023/05/26 08:37:16;;;;;;;16.75;4.55;;;16.80;99.90;;;;;;4986774;28;20052;-80
2023/05/26 08:39:42;;;;;;;19.08;4.97;;;16.90;99.90;;;;;;5004471;28;20068;-80
2023/05/26 08:42:13;;;;;;;13.90;4.45;;;17.00;99.90;;;;;;5018258;28;20045;-80
2023/05/26 08:44:39;;;;;;;18.55;4.60;;;17.10;99.90;;;;;;5014554;28;20045;-80
2023/05/26 08:47:05;;;;;;;18.00;4.05;;;17.20;99.90;;;;;;5016044;28;20052;-79
2023/05/26 08:49:39;;;;;;;14.32;3.78;;;17.20;99.90;;;;;;5014152;28;20091;-80
2023/05/26 08:52:10;;;;;;;13.05;3.63;;;17.30;99.90;;;;;;5020622;28;20513;-79
2023/05/26 08:54:36;;;;;;;18.92;3.63;;;17.30;99.90;;;;;;5032277;28;20057;-81
2023/05/26 08:57:04;;;;;;;18.23;3.72;;;17.20;99.80;;;;;;5030286;28;20033;-79
2023/05/26 08:59:31;;;;;;;15.82;3.70;;;17.00;99.30;;;;;;5015094;28;20437;-80
2023/05/26 09:01:57;;;;;;;16.60;3.30;;;17.00;99.50;;;;;;5000317;28;20037;-80
2023/05/26 09:04:25;;;;;;;14.18;4.03;;;17.10;99.20;;;;;;5024938;28;20432;-80
2023/05/26 09:06:51;;;;;;;16.25;3.75;;;17.00;98.80;;;;;;5007888;28;20160;-79
2023/05/26 09:09:18;;;;;;;12.88;3.33;;;17.00;98.40;;;;;;4998658;28;20133;-79
2023/05/26 09:11:44;;;;;;;17.92;3.90;;;17.20;98.70;;;;;;5022436;28;20049;-80
2023/05/26 09:14:17;;;;;;;12.82;3.92;;;17.40;98.50;;;;;;5000876;28;20052;-79
2023/05/26 09:16:43;;;;;;;16.52;3.65;;;17.40;97.80;;;;;;4998673;28;20037;-80
2023/05/26 09:19:17;;;;;;;12.32;2.78;;;17.40;97.60;;;;;;5024282;28;20029;-79
2023/05/26 09:21:50;;;;;;;15.30;3.00;;;17.50;97.20;;;;;;5021369;28;20040;-79
2023/05/26 09:24:18;;;;;;;13.65;3.13;;;17.70;97.40;;;;;;5033232;28;20041;-80
2023/05/26 09:26:46;;;;;;;13.90;2.95;;;17.90;97.20;;;;;;5021077;28;20094;-83
2023/05/26 09:29:12;;;;;;;15.10;3.70;;;17.90;94.80;;;;;;5010081;28;20120;-80
2023/05/26 09:31:39;;;;;;;11.38;3.78;;;17.90;96.10;;;;;;5015971;28;20041;-81
2023/05/26 09:34:05;;;;;;;11.15;3.15;;;17.80;95.30;;;;;;5017235;28;20044;-82
2023/05/26 09:36:36;;;;;;;11.13;3.30;;;17.70;95.20;;;;;;5000346;28;20041;-82
2023/05/26 09:39:03;;;;;;;12.43;3.05;;;17.60;94.00;;;;;;5001238;28;20037;-80
2023/05/26 09:41:45;;;;;;;13.20;2.90;;;17.70;94.90;;;;;;5015271;28;20041;-79
2023/05/26 09:44:18;;;;;;;14.10;2.85;;;17.70;92.80;;;;;;5014091;28;20153;-79
2023/05/26 09:46:45;;;;;;;13.57;3.03;;;17.60;92.10;;;;;;5013613;28;20037;-79
2023/05/26 09:49:13;;;;;;;11.20;2.90;;;17.40;93.30;;;;;;4998401;28;20033;-80
2023/05/26 09:51:40;;;;;;;11.25;3.40;;;17.30;92.50;;;;;;5030169;28;20045;-80
2023/05/26 09:54:09;;;;;;;12.88;3.22;;;17.10;92.80;;;;;;5018639;28;20161;-80
2023/05/26 09:56:37;;;;;;;17.05;3.50;;;17.00;93.20;;;;;;5031957;28;20033;-80
2023/05/26 09:59:06;;;;;;;13.63;3.58;;;16.90;92.70;;;;;;5028087;28;20032;-80
2023/05/26 10:01:37;;;;;;;17.08;3.75;;;17.00;93.80;;;;;;4999254;28;20481;-79
2023/05/26 10:04:07;;;;;;;12.70;3.35;;;17.00;93.70;;;;;;5008587;28;20808;-81
2023/05/26 10:06:39;;;;;;;11.43;3.13;;;17.00;93.90;;;;;;5032358;28;20064;-80
2023/05/26 10:09:06;;;;;;;14.23;3.28;;;17.00;93.50;;;;;;5023787;28;20067;-80
2023/05/26 10:11:36;;;;;;;13.27;3.15;;;17.00;93.30;;;;;;5019839;28;20041;-79
2023/05/26 10:14:02;;;;;;;14.50;3.55;;;17.00;93.90;;;;;;5031827;28;20044;-80
2023/05/26 10:16:29;;;;;;;12.70;3.35;;;17.00;93.60;;;;;;5042187;28;20037;-81
2023/05/26 10:18:55;;;;;;;12.38;2.92;;;17.00;93.10;;;;;;5031874;28;20047;-80
2023/05/26 10:21:26;;;;;;;9.63;3.05;;;17.00;93.10;;;;;;5026891;28;20406;-81
2023/05/26 10:24:16;;;;;;;14.70;3.50;;;17.00;92.60;;;;;;5008747;28;20951;-80
2023/05/26 10:27:00;;;;;;;12.07;3.47;;;17.00;92.20;;;;;;5015981;28;20048;-81
2023/05/26 10:29:54;;;;;;;11.85;2.88;;;17.00;92.60;;;;;;5029673;28;20090;-81
2023/05/26 10:32:43;;;;;;;9.55;3.35;;;16.90;93.00;;;;;;4998945;28;20402;-81
2023/05/26 10:35:24;;;;;;;11.95;3.10;;;16.90;92.70;;;;;;4997338;28;20493;-81
2023/05/26 10:38:13;;;;;;;13.88;3.40;;;16.90;92.60;;;;;;5010223;28;20051;-81
2023/05/26 10:40:52;;;;;;;14.75;3.20;;;16.90;92.50;;;;;;4974093;28;20046;-80
2023/05/26 10:43:27;;;;;;;9.95;3.25;;;16.90;92.80;;;;;;4974513;28;20053;-81
2023/05/26 10:46:03;;;;;;;14.57;3.00;;;16.90;92.70;;;;;;4970030;28;21128;-79
2023/05/26 10:48:54;;;;;;;13.43;2.92;;;16.80;91.80;;;;;;4990653;28;20077;-80
2023/05/26 10:51:31;;;;;;;11.48;3.28;;;16.80;91.20;;;;;;4973990;28;20046;-80
2023/05/26 10:53:58;;;;;;;12.18;3.38;;;16.60;91.30;;;;;;4961520;28;20077;-80
2023/05/26 10:56:33;;;;;;;15.23;3.42;;;16.40;91.70;;;;;;4974571;28;20045;-80
2023/05/26 10:58:59;;;;;;;9.85;2.88;;;16.50;91.40;;;;;;4974773;28;20042;-81
2023/05/26 11:01:31;;;;;;;11.57;3.33;;;16.40;91.30;;;;;;4978081;28;20053;-81
2023/05/26 11:04:04;;;;;;;8.90;2.50;;;16.50;90.80;;;;;;4993780;28;20124;-81
2023/05/26 11:06:52;;;;;;;12.55;2.95;;;16.40;90.50;;;;;;4972205;28;20084;-80
2023/05/26 11:09:22;;;;;;;15.25;3.40;;;16.50;91.50;;;;;;4974357;28;20034;-80
2023/05/26 11:11:51;;;;;;;10.13;3.05;;;16.50;91.80;;;;;;5013031;28;20135;-80
2023/05/26 11:14:24;;;;;;;10.98;3.35;;;16.70;91.60;;;;;;5034292;28;20044;-80
2023/05/26 11:16:50;;;;;;;15.05;3.20;;;16.70;91.70;;;;;;5017198;28;20045;-81
2023/05/26 11:19:33;;;;;;;15.57;3.20;;;16.90;91.80;;;;;;4986319;28;20427;-80
2023/05/26 11:22:10;;;;;;;11.88;3.78;;;17.00;91.60;;;;;;4998422;28;20092;-80
2023/05/26 11:24:36;;;;;;;11.98;2.83;;;17.00;89.80;;;;;;5008082;28;20036;-80
2023/05/26 11:27:03;;;;;;;12.57;3.20;;;17.00;91.30;;;;;;5015548;28;20040;-80
2023/05/26 11:29:30;;;;;;;9.60;2.85;;;17.10;91.30;;;;;;4986174;28;20397;-79
2023/05/26 11:31:56;;;;;;;10.52;3.20;;;17.10;91.20;;;;;;5003200;28;20053;-80
2023/05/26 11:34:22;;;;;;;12.27;3.10;;;17.20;91.60;;;;;;5020961;28;20504;-80
2023/05/26 11:36:49;;;;;;;11.65;3.13;;;17.30;91.70;;;;;;5033634;28;20037;-82
2023/05/26 11:39:15;;;;;;;16.58;3.40;;;17.30;91.50;;;;;;5003374;28;20040;-83
2023/05/26 11:41:42;;;;;;;11.85;2.50;;;17.40;91.10;;;;;;5002456;28;20044;-81
2023/05/26 11:44:09;;;;;;;7.53;2.22;;;17.50;91.40;;;;;;5022692;28;20296;-81
2023/05/26 11:46:39;;;;;;;13.48;3.10;;;17.70;91.70;;;;;;5021098;28;20033;-80
2023/05/26 11:49:15;;;;;;;16.30;3.35;;;17.80;91.90;;;;;;5018778;28;20060;-81
2023/05/26 11:51:50;;;;;;;12.90;3.20;;;17.90;91.60;;;;;;5037367;28;20041;-81
2023/05/26 11:54:18;;;;;;;13.77;3.97;;;17.90;91.00;;;;;;5018498;28;20131;-80
2023/05/26 11:56:46;;;;;;;10.75;2.70;;;17.90;90.60;;;;;;5020706;28;20515;-80
2023/05/26 11:59:20;;;;;;;18.13;3.67;;;17.90;90.50;;;;;;5015695;28;20115;-80
2023/05/26 12:01:47;;;;;;;14.20;3.30;;;17.90;90.00;;;;;;4997359;28;20049;-81
2023/05/26 12:04:12;;;;;;;15.25;3.25;;;17.80;90.50;;;;;;5017475;28;20128;-80
2023/05/26 12:06:40;;;;;;;13.90;2.90;;;17.90;90.20;;;;;;5004557;28;20132;-81
2023/05/26 12:09:23;;;;;;;13.77;3.10;;;17.80;90.10;;;;;;5002657;28;20068;-80
2023/05/26 12:11:52;;;;;;;9.48;2.53;;;17.90;90.30;;;;;;4994479;28;20040;-80
2023/05/26 12:14:21;;;;;;;11.25;3.50;;;17.90;90.10;;;;;;5019511;28;20063;-80
2023/05/26 12:16:50;;;;;;;15.95;3.40;;;18.00;90.50;;;;;;4983387;28;20049;-81
2023/05/26 12:19:18;;;;;;;14.27;3.47;;;18.00;90.10;;;;;;5004074;28;20036;-80
2023/05/26 12:21:49;;;;;;;12.48;2.75;;;18.10;90.30;;;;;;5004519;28;20041;-81
2023/05/26 12:24:29;;;;;;;12.05;3.60;;;18.10;90.20;;;;;;5020581;28;20079;-82
2023/05/26 12:26:54;;;;;;;12.48;3.20;;;18.20;90.00;;;;;;5016774;28;20461;-80
2023/05/26 12:29:20;;;;;;;13.15;3.55;;;18.40;90.00;;;;;;5035863;28;20116;-81
2023/05/26 12:31:51;;;;;;;11.77;3.20;;;18.40;89.00;;;;;;4997267;28;20111;-80
2023/05/26 12:34:22;;;;;;;11.80;3.30;;;18.50;89.40;;;;;;5034456;28;20072;-80
2023/05/26 12:36:50;;;;;;;12.23;3.03;;;18.70;90.10;;;;;;5003009;28;20040;-81
2023/05/26 12:39:16;;;;;;;15.23;3.25;;;18.90;90.50;;;;;;5003165;28;20037;-81
2023/05/26 12:41:45;;;;;;;11.95;2.80;;;19.20;90.60;;;;;;5019226;28;20070;-82
2023/05/26 12:44:11;;;;;;;11.77;3.55;;;19.50;89.60;;;;;;5002948;28;20556;-83
2023/05/26 12:46:41;;;;;;;10.77;3.15;;;19.50;88.40;;;;;;5035599;28;20099;-82